Rechercher aéroport 
image banner adimage banner adimage banner ad
image banner ad

PN95 - Horne

Situé à Scenery Hill, United States

ICAO - PN95, IATA -

Données fournies par Airmate  

Information générale

Coordonnées: N40°6'0" W80°1'59"
Élévation : 1040 feet MSL.
Variation magnétique : -07° East
Voir autres Aéroports à Pennsylvania

Données opérationnelles

Special qualification required
Heure actuelle UTC:
Heure actuelle locale:
Météo à : KAFJ - Washington County ( 22 km )
METAR: KAFJ 150456Z AUTO 00000KT 10SM FEW075 15/14 A2993 RMK AO2 SLP127 T01500144 402720144
Voir NOTAMs / SUP AIP / TFR affectant cet aéroport [VIEW]
Fréquences de communication: [VIEW]

Pistes:

Identifiant RWYQFULongueur (ft)Largeur (ft)SurfaceLDA (ft)
E1300200GRASS
W1300200GRASS

Coordonnées de l'aéroport

Adresse: Scenery Hill United States

Vue satellite de PN95